sensor_id;sensor_type;location;lat;lon;timestamp;temperature;humidity
33865;DHT22;20159;51.072;13.526;2022-07-09T00:00:47;15.50;84.40
33865;DHT22;20159;51.072;13.526;2022-07-09T00:03:13;15.50;84.50
33865;DHT22;20159;51.072;13.526;2022-07-09T00:05:38;15.50;84.70
33865;DHT22;20159;51.072;13.526;2022-07-09T00:08:04;15.50;85.40
33865;DHT22;20159;51.072;13.526;2022-07-09T00:10:30;15.50;85.80
33865;DHT22;20159;51.072;13.526;2022-07-09T00:12:56;15.50;85.80
33865;DHT22;20159;51.072;13.526;2022-07-09T00:15:21;15.50;85.70
33865;DHT22;20159;51.072;13.526;2022-07-09T00:17:47;15.50;86.00
33865;DHT22;20159;51.072;13.526;2022-07-09T00:20:12;15.50;85.90
33865;DHT22;20159;51.072;13.526;2022-07-09T00:22:38;15.50;86.00
33865;DHT22;20159;51.072;13.526;2022-07-09T00:25:04;15.60;86.10
33865;DHT22;20159;51.072;13.526;2022-07-09T00:27:29;15.60;86.10
33865;DHT22;20159;51.072;13.526;2022-07-09T00:29:55;15.60;86.10
33865;DHT22;20159;51.072;13.526;2022-07-09T00:32:20;15.60;86.10
33865;DHT22;20159;51.072;13.526;2022-07-09T00:34:46;15.60;86.20
33865;DHT22;20159;51.072;13.526;2022-07-09T00:37:12;15.70;86.30
33865;DHT22;20159;51.072;13.526;2022-07-09T00:39:38;15.60;86.30
33865;DHT22;20159;51.072;13.526;2022-07-09T00:42:08;15.70;86.30
33865;DHT22;20159;51.072;13.526;2022-07-09T00:44:34;15.70;86.70
33865;DHT22;20159;51.072;13.526;2022-07-09T00:47:00;15.70;86.30
33865;DHT22;20159;51.072;13.526;2022-07-09T00:49:28;15.70;86.30
33865;DHT22;20159;51.072;13.526;2022-07-09T00:51:54;15.70;86.90
33865;DHT22;20159;51.072;13.526;2022-07-09T00:54:21;15.70;86.60
33865;DHT22;20159;51.072;13.526;2022-07-09T00:56:47;15.70;86.80
33865;DHT22;20159;51.072;13.526;2022-07-09T00:59:13;15.70;86.80
33865;DHT22;20159;51.072;13.526;2022-07-09T01:01:41;15.70;86.70
33865;DHT22;20159;51.072;13.526;2022-07-09T01:04:07;15.70;86.90
33865;DHT22;20159;51.072;13.526;2022-07-09T01:06:33;15.60;86.50
33865;DHT22;20159;51.072;13.526;2022-07-09T01:09:01;15.70;86.60
33865;DHT22;20159;51.072;13.526;2022-07-09T01:11:26;15.70;86.80
33865;DHT22;20159;51.072;13.526;2022-07-09T01:13:52;15.70;86.90
33865;DHT22;20159;51.072;13.526;2022-07-09T01:16:18;15.60;87.20
33865;DHT22;20159;51.072;13.526;2022-07-09T01:18:44;15.70;87.10
33865;DHT22;20159;51.072;13.526;2022-07-09T01:21:11;15.70;87.20
33865;DHT22;20159;51.072;13.526;2022-07-09T01:23:37;15.70;87.00
33865;DHT22;20159;51.072;13.526;2022-07-09T01:26:03;15.70;86.70
33865;DHT22;20159;51.072;13.526;2022-07-09T01:28:28;15.80;86.60
33865;DHT22;20159;51.072;13.526;2022-07-09T01:30:54;15.80;86.60
33865;DHT22;20159;51.072;13.526;2022-07-09T01:33:19;15.80;86.60
33865;DHT22;20159;51.072;13.526;2022-07-09T01:35:45;15.70;86.50
33865;DHT22;20159;51.072;13.526;2022-07-09T01:38:10;15.80;86.60
33865;DHT22;20159;51.072;13.526;2022-07-09T01:40:36;15.80;86.40
33865;DHT22;20159;51.072;13.526;2022-07-09T01:43:02;15.80;86.00
33865;DHT22;20159;51.072;13.526;2022-07-09T01:45:28;15.70;85.80
33865;DHT22;20159;51.072;13.526;2022-07-09T01:47:53;15.70;85.80
33865;DHT22;20159;51.072;13.526;2022-07-09T01:50:19;15.70;86.00
33865;DHT22;20159;51.072;13.526;2022-07-09T01:52:44;15.70;86.00
33865;DHT22;20159;51.072;13.526;2022-07-09T01:55:10;15.60;86.10
33865;DHT22;20159;51.072;13.526;2022-07-09T01:57:36;15.60;86.50
33865;DHT22;20159;51.072;13.526;2022-07-09T02:00:02;16.00;87.00
33865;DHT22;20159;51.072;13.526;2022-07-09T02:02:29;15.60;87.00
33865;DHT22;20159;51.072;13.526;2022-07-09T02:04:54;15.60;87.20
33865;DHT22;20159;51.072;13.526;2022-07-09T02:07:20;15.60;87.30
33865;DHT22;20159;51.072;13.526;2022-07-09T02:09:45;15.60;87.50
33865;DHT22;20159;51.072;13.526;2022-07-09T02:12:11;15.60;87.60
33865;DHT22;20159;51.072;13.526;2022-07-09T02:14:37;15.70;87.80
33865;DHT22;20159;51.072;13.526;2022-07-09T02:17:02;15.70;87.70
33865;DHT22;20159;51.072;13.526;2022-07-09T02:19:28;15.80;87.70
33865;DHT22;20159;51.072;13.526;2022-07-09T02:21:53;15.80;87.60
33865;DHT22;20159;51.072;13.526;2022-07-09T02:24:19;15.90;87.60
33865;DHT22;20159;51.072;13.526;2022-07-09T02:26:45;15.90;87.60
33865;DHT22;20159;51.072;13.526;2022-07-09T02:29:11;16.00;87.50
33865;DHT22;20159;51.072;13.526;2022-07-09T02:31:36;13.40;86.10
33865;DHT22;20159;51.072;13.526;2022-07-09T02:34:02;16.10;87.40
33865;DHT22;20159;51.072;13.526;2022-07-09T02:36:27;16.10;87.40
33865;DHT22;20159;51.072;13.526;2022-07-09T02:38:53;16.20;87.30
33865;DHT22;20159;51.072;13.526;2022-07-09T02:41:18;16.20;87.10
33865;DHT22;20159;51.072;13.526;2022-07-09T02:43:44;16.30;86.90
33865;DHT22;20159;51.072;13.526;2022-07-09T02:46:10;16.30;86.70
33865;DHT22;20159;51.072;13.526;2022-07-09T02:48:35;16.40;86.50
33865;DHT22;20159;51.072;13.526;2022-07-09T02:51:01;16.30;86.30
33865;DHT22;20159;51.072;13.526;2022-07-09T02:53:26;16.40;86.30
33865;DHT22;20159;51.072;13.526;2022-07-09T02:55:52;16.40;86.30
33865;DHT22;20159;51.072;13.526;2022-07-09T02:58:18;16.30;86.10
33865;DHT22;20159;51.072;13.526;2022-07-09T03:00:43;16.30;86.00
33865;DHT22;20159;51.072;13.526;2022-07-09T03:03:09;16.30;85.80
33865;DHT22;20159;51.072;13.526;2022-07-09T03:05:35;16.20;86.30
33865;DHT22;20159;51.072;13.526;2022-07-09T03:08:01;16.20;86.10
33865;DHT22;20159;51.072;13.526;2022-07-09T03:10:27;16.20;86.10
33865;DHT22;20159;51.072;13.526;2022-07-09T03:12:53;16.10;86.30
33865;DHT22;20159;51.072;13.526;2022-07-09T03:15:18;16.20;86.50
33865;DHT22;20159;51.072;13.526;2022-07-09T03:17:44;16.10;86.30
33865;DHT22;20159;51.072;13.526;2022-07-09T03:20:11;16.10;86.50
33865;DHT22;20159;51.072;13.526;2022-07-09T03:22:37;16.00;86.70
33865;DHT22;20159;51.072;13.526;2022-07-09T03:25:03;16.00;86.80
33865;DHT22;20159;51.072;13.526;2022-07-09T03:27:29;16.00;86.80
33865;DHT22;20159;51.072;13.526;2022-07-09T03:29:54;16.00;86.90
33865;DHT22;20159;51.072;13.526;2022-07-09T03:32:20;16.00;87.10
33865;DHT22;20159;51.072;13.526;2022-07-09T03:34:47;16.00;87.10
33865;DHT22;20159;51.072;13.526;2022-07-09T03:37:12;16.00;87.20
33865;DHT22;20159;51.072;13.526;2022-07-09T03:39:38;16.00;87.30
33865;DHT22;20159;51.072;13.526;2022-07-09T03:42:04;16.00;87.50
33865;DHT22;20159;51.072;13.526;2022-07-09T03:44:32;16.00;87.60
33865;DHT22;20159;51.072;13.526;2022-07-09T03:46:58;15.90;87.50
33865;DHT22;20159;51.072;13.526;2022-07-09T03:49:24;15.90;87.60
33865;DHT22;20159;51.072;13.526;2022-07-09T03:51:49;15.90;87.60
33865;DHT22;20159;51.072;13.526;2022-07-09T03:54:15;15.90;87.70
33865;DHT22;20159;51.072;13.526;2022-07-09T03:56:40;15.90;87.80
33865;DHT22;20159;51.072;13.526;2022-07-09T03:59:06;15.90;88.00
33865;DHT22;20159;51.072;13.526;2022-07-09T04:01:31;15.90;88.20
33865;DHT22;20159;51.072;13.526;2022-07-09T04:03:57;16.00;88.40
33865;DHT22;20159;51.072;13.526;2022-07-09T04:06:24;16.00;88.50
33865;DHT22;20159;51.072;13.526;2022-07-09T04:08:49;16.00;88.50
33865;DHT22;20159;51.072;13.526;2022-07-09T04:11:15;16.00;88.40
33865;DHT22;20159;51.072;13.526;2022-07-09T04:13:41;16.10;88.40
33865;DHT22;20159;51.072;13.526;2022-07-09T04:16:06;16.10;88.40
33865;DHT22;20159;51.072;13.526;2022-07-09T04:18:33;16.10;88.30
33865;DHT22;20159;51.072;13.526;2022-07-09T04:20:58;16.10;88.40
33865;DHT22;20159;51.072;13.526;2022-07-09T04:23:24;16.10;88.40
33865;DHT22;20159;51.072;13.526;2022-07-09T04:25:49;16.20;88.70
33865;DHT22;20159;51.072;13.526;2022-07-09T04:28:17;16.20;88.90
33865;DHT22;20159;51.072;13.526;2022-07-09T04:30:44;16.30;89.30
33865;DHT22;20159;51.072;13.526;2022-07-09T04:33:09;16.40;89.80
33865;DHT22;20159;51.072;13.526;2022-07-09T04:35:35;16.50;90.10
33865;DHT22;20159;51.072;13.526;2022-07-09T04:38:01;16.60;90.10
33865;DHT22;20159;51.072;13.526;2022-07-09T04:40:26;16.80;90.10
33865;DHT22;20159;51.072;13.526;2022-07-09T04:42:52;17.00;90.00
33865;DHT22;20159;51.072;13.526;2022-07-09T04:45:18;17.20;89.40
33865;DHT22;20159;51.072;13.526;2022-07-09T04:47:43;17.40;88.90
33865;DHT22;20159;51.072;13.526;2022-07-09T04:50:09;17.50;88.50
33865;DHT22;20159;51.072;13.526;2022-07-09T04:52:36;17.70;88.00
33865;DHT22;20159;51.072;13.526;2022-07-09T04:55:02;17.90;87.40
33865;DHT22;20159;51.072;13.526;2022-07-09T04:57:28;18.00;86.80
33865;DHT22;20159;51.072;13.526;2022-07-09T04:59:59;18.10;86.80
33865;DHT22;20159;51.072;13.526;2022-07-09T05:02:25;18.20;86.60
33865;DHT22;20159;51.072;13.526;2022-07-09T05:04:50;18.30;86.10
33865;DHT22;20159;51.072;13.526;2022-07-09T05:07:16;18.50;86.10
33865;DHT22;20159;51.072;13.526;2022-07-09T05:09:42;18.60;85.50
33865;DHT22;20159;51.072;13.526;2022-07-09T05:12:07;18.70;84.80
33865;DHT22;20159;51.072;13.526;2022-07-09T05:14:34;18.80;84.50
33865;DHT22;20159;51.072;13.526;2022-07-09T05:16:59;18.90;84.10
33865;DHT22;20159;51.072;13.526;2022-07-09T05:19:25;18.90;84.20
33865;DHT22;20159;51.072;13.526;2022-07-09T05:21:50;19.00;84.20
33865;DHT22;20159;51.072;13.526;2022-07-09T05:24:16;19.10;83.80
33865;DHT22;20159;51.072;13.526;2022-07-09T05:26:41;19.20;83.70
33865;DHT22;20159;51.072;13.526;2022-07-09T05:29:07;19.30;83.30
33865;DHT22;20159;51.072;13.526;2022-07-09T05:31:32;19.30;83.30
33865;DHT22;20159;51.072;13.526;2022-07-09T05:33:58;19.50;84.50
33865;DHT22;20159;51.072;13.526;2022-07-09T05:36:25;19.70;84.60
33865;DHT22;20159;51.072;13.526;2022-07-09T05:38:51;20.00;84.50
33865;DHT22;20159;51.072;13.526;2022-07-09T05:41:16;20.30;84.50
33865;DHT22;20159;51.072;13.526;2022-07-09T05:43:43;20.70;83.80
33865;DHT22;20159;51.072;13.526;2022-07-09T05:46:08;21.00;83.20
33865;DHT22;20159;51.072;13.526;2022-07-09T05:48:34;21.40;82.40
33865;DHT22;20159;51.072;13.526;2022-07-09T05:50:59;21.80;80.40
33865;DHT22;20159;51.072;13.526;2022-07-09T05:53:25;22.10;78.70
33865;DHT22;20159;51.072;13.526;2022-07-09T05:55:50;22.30;77.30
33865;DHT22;20159;51.072;13.526;2022-07-09T05:58:16;22.40;76.20
33865;DHT22;20159;51.072;13.526;2022-07-09T06:00:41;22.60;75.50
33865;DHT22;20159;51.072;13.526;2022-07-09T06:03:07;22.60;74.90
33865;DHT22;20159;51.072;13.526;2022-07-09T06:05:32;22.70;74.30
33865;DHT22;20159;51.072;13.526;2022-07-09T06:07:58;22.70;73.80
33865;DHT22;20159;51.072;13.526;2022-07-09T06:10:24;22.60;73.40
33865;DHT22;20159;51.072;13.526;2022-07-09T06:12:49;22.60;72.80
33865;DHT22;20159;51.072;13.526;2022-07-09T06:15:15;22.60;72.60
33865;DHT22;20159;51.072;13.526;2022-07-09T06:17:40;22.50;72.10
33865;DHT22;20159;51.072;13.526;2022-07-09T06:20:06;22.50;72.30
33865;DHT22;20159;51.072;13.526;2022-07-09T06:22:32;22.40;72.40
33865;DHT22;20159;51.072;13.526;2022-07-09T06:24:57;22.40;72.60
33865;DHT22;20159;51.072;13.526;2022-07-09T06:27:24;22.30;72.70
33865;DHT22;20159;51.072;13.526;2022-07-09T06:29:49;22.30;72.70
33865;DHT22;20159;51.072;13.526;2022-07-09T06:32:15;22.30;72.20
33865;DHT22;20159;51.072;13.526;2022-07-09T06:34:40;22.20;71.80
33865;DHT22;20159;51.072;13.526;2022-07-09T06:37:06;22.20;71.90
33865;DHT22;20159;51.072;13.526;2022-07-09T06:39:31;22.10;72.00
33865;DHT22;20159;51.072;13.526;2022-07-09T06:42:09;22.10;71.90
33865;DHT22;20159;51.072;13.526;2022-07-09T06:44:36;22.00;72.50
33865;DHT22;20159;51.072;13.526;2022-07-09T06:47:01;21.90;72.40
33865;DHT22;20159;51.072;13.526;2022-07-09T06:49:27;21.90;72.50
33865;DHT22;20159;51.072;13.526;2022-07-09T06:51:53;21.80;72.40
33865;DHT22;20159;51.072;13.526;2022-07-09T06:54:19;21.70;72.30
33865;DHT22;20159;51.072;13.526;2022-07-09T06:56:44;21.60;72.60
33865;DHT22;20159;51.072;13.526;2022-07-09T06:59:10;21.60;72.80
33865;DHT22;20159;51.072;13.526;2022-07-09T07:01:35;21.50;73.00
33865;DHT22;20159;51.072;13.526;2022-07-09T07:04:01;21.40;72.90
33865;DHT22;20159;51.072;13.526;2022-07-09T07:06:26;21.30;73.20
33865;DHT22;20159;51.072;13.526;2022-07-09T07:08:52;21.30;73.60
33865;DHT22;20159;51.072;13.526;2022-07-09T07:11:18;21.30;73.70
33865;DHT22;20159;51.072;13.526;2022-07-09T07:13:43;21.20;73.50
33865;DHT22;20159;51.072;13.526;2022-07-09T07:16:09;21.20;73.60
33865;DHT22;20159;51.072;13.526;2022-07-09T07:18:35;21.10;73.60
33865;DHT22;20159;51.072;13.526;2022-07-09T07:21:00;21.10;73.60
33865;DHT22;20159;51.072;13.526;2022-07-09T07:23:26;21.00;73.70
33865;DHT22;20159;51.072;13.526;2022-07-09T07:25:51;21.00;74.00
33865;DHT22;20159;51.072;13.526;2022-07-09T07:28:16;21.00;74.60
33865;DHT22;20159;51.072;13.526;2022-07-09T07:30:42;21.10;75.40
33865;DHT22;20159;51.072;13.526;2022-07-09T07:33:08;21.20;75.20
33865;DHT22;20159;51.072;13.526;2022-07-09T07:35:33;21.40;74.70
33865;DHT22;20159;51.072;13.526;2022-07-09T07:37:59;21.50;74.70
33865;DHT22;20159;51.072;13.526;2022-07-09T07:40:24;21.70;73.80
33865;DHT22;20159;51.072;13.526;2022-07-09T07:42:50;21.90;74.00
33865;DHT22;20159;51.072;13.526;2022-07-09T07:45:16;22.00;72.90
33865;DHT22;20159;51.072;13.526;2022-07-09T07:47:41;22.20;72.00
33865;DHT22;20159;51.072;13.526;2022-07-09T07:50:07;22.30;71.60
33865;DHT22;20159;51.072;13.526;2022-07-09T07:52:33;22.40;71.10
33865;DHT22;20159;51.072;13.526;2022-07-09T07:54:58;22.60;71.50
33865;DHT22;20159;51.072;13.526;2022-07-09T07:57:24;22.70;71.00
33865;DHT22;20159;51.072;13.526;2022-07-09T07:59:50;22.80;71.10
33865;DHT22;20159;51.072;13.526;2022-07-09T08:02:15;22.90;70.40
33865;DHT22;20159;51.072;13.526;2022-07-09T08:04:41;23.00;70.10
33865;DHT22;20159;51.072;13.526;2022-07-09T08:07:06;23.10;69.60
33865;DHT22;20159;51.072;13.526;2022-07-09T08:09:32;23.20;69.50
33865;DHT22;20159;51.072;13.526;2022-07-09T08:11:59;23.30;68.90
33865;DHT22;20159;51.072;13.526;2022-07-09T08:14:25;23.30;68.60
33865;DHT22;20159;51.072;13.526;2022-07-09T08:16:50;23.40;67.90
33865;DHT22;20159;51.072;13.526;2022-07-09T08:19:16;23.40;68.30
33865;DHT22;20159;51.072;13.526;2022-07-09T08:21:42;23.40;68.00
33865;DHT22;20159;51.072;13.526;2022-07-09T08:24:07;23.40;68.00
33865;DHT22;20159;51.072;13.526;2022-07-09T08:26:33;23.40;68.30
33865;DHT22;20159;51.072;13.526;2022-07-09T08:28:58;23.50;67.60
33865;DHT22;20159;51.072;13.526;2022-07-09T08:31:24;23.60;67.60
33865;DHT22;20159;51.072;13.526;2022-07-09T08:33:50;23.60;66.80
33865;DHT22;20159;51.072;13.526;2022-07-09T08:36:16;23.60;66.70
33865;DHT22;20159;51.072;13.526;2022-07-09T08:38:43;23.70;66.80
33865;DHT22;20159;51.072;13.526;2022-07-09T08:41:08;23.70;66.20
33865;DHT22;20159;51.072;13.526;2022-07-09T08:43:36;23.70;66.10
33865;DHT22;20159;51.072;13.526;2022-07-09T08:46:02;23.70;65.70
33865;DHT22;20159;51.072;13.526;2022-07-09T08:48:33;23.70;66.00
33865;DHT22;20159;51.072;13.526;2022-07-09T08:50:59;23.70;65.80
33865;DHT22;20159;51.072;13.526;2022-07-09T08:53:25;23.70;65.70
33865;DHT22;20159;51.072;13.526;2022-07-09T08:55:53;23.80;66.00
33865;DHT22;20159;51.072;13.526;2022-07-09T08:58:19;23.80;66.00
33865;DHT22;20159;51.072;13.526;2022-07-09T09:00:45;23.90;65.70
33865;DHT22;20159;51.072;13.526;2022-07-09T09:03:12;23.90;65.80
33865;DHT22;20159;51.072;13.526;2022-07-09T09:05:38;23.90;65.10
33865;DHT22;20159;51.072;13.526;2022-07-09T09:08:20;23.90;64.90
33865;DHT22;20159;51.072;13.526;2022-07-09T09:10:48;23.90;64.50
33865;DHT22;20159;51.072;13.526;2022-07-09T09:13:15;23.80;64.50
33865;DHT22;20159;51.072;13.526;2022-07-09T09:15:42;23.80;64.90
33865;DHT22;20159;51.072;13.526;2022-07-09T09:18:08;23.80;64.70
33865;DHT22;20159;51.072;13.526;2022-07-09T09:20:34;23.80;65.30
33865;DHT22;20159;51.072;13.526;2022-07-09T09:22:59;23.80;65.60
33865;DHT22;20159;51.072;13.526;2022-07-09T09:25:27;23.90;65.20
33865;DHT22;20159;51.072;13.526;2022-07-09T09:27:57;23.90;64.20
33865;DHT22;20159;51.072;13.526;2022-07-09T09:30:24;23.90;63.60
33865;DHT22;20159;51.072;13.526;2022-07-09T09:33:00;23.90;63.60
33865;DHT22;20159;51.072;13.526;2022-07-09T09:35:28;23.90;63.60
33865;DHT22;20159;51.072;13.526;2022-07-09T09:37:54;23.80;63.50
33865;DHT22;20159;51.072;13.526;2022-07-09T09:40:20;23.70;63.50
33865;DHT22;20159;51.072;13.526;2022-07-09T09:42:46;23.60;63.40
33865;DHT22;20159;51.072;13.526;2022-07-09T09:45:13;23.50;63.60
33865;DHT22;20159;51.072;13.526;2022-07-09T09:47:47;23.30;64.50
33865;DHT22;20159;51.072;13.526;2022-07-09T09:50:18;23.20;64.30
33865;DHT22;20159;51.072;13.526;2022-07-09T09:52:48;23.10;64.60
33865;DHT22;20159;51.072;13.526;2022-07-09T09:55:15;23.00;65.50
33865;DHT22;20159;51.072;13.526;2022-07-09T09:57:41;22.90;66.10
33865;DHT22;20159;51.072;13.526;2022-07-09T10:00:07;22.90;66.30
33865;DHT22;20159;51.072;13.526;2022-07-09T10:02:34;23.00;66.50
33865;DHT22;20159;51.072;13.526;2022-07-09T10:05:01;23.10;66.90
33865;DHT22;20159;51.072;13.526;2022-07-09T10:07:26;23.20;66.40
33865;DHT22;20159;51.072;13.526;2022-07-09T10:09:57;23.40;66.30
33865;DHT22;20159;51.072;13.526;2022-07-09T10:12:27;23.60;65.50
33865;DHT22;20159;51.072;13.526;2022-07-09T10:14:53;23.80;65.20
33865;DHT22;20159;51.072;13.526;2022-07-09T10:17:19;23.90;65.00
33865;DHT22;20159;51.072;13.526;2022-07-09T10:20:02;24.10;64.80
33865;DHT22;20159;51.072;13.526;2022-07-09T10:22:40;24.10;64.20
33865;DHT22;20159;51.072;13.526;2022-07-09T10:25:11;24.20;63.90
33865;DHT22;20159;51.072;13.526;2022-07-09T10:27:47;24.40;64.20
33865;DHT22;20159;51.072;13.526;2022-07-09T10:33:09;24.80;62.70
33865;DHT22;20159;51.072;13.526;2022-07-09T10:35:43;24.60;63.00
33865;DHT22;20159;51.072;13.526;2022-07-09T10:38:10;24.70;63.00
33865;DHT22;20159;51.072;13.526;2022-07-09T10:40:41;24.80;62.70
33865;DHT22;20159;51.072;13.526;2022-07-09T10:43:07;24.80;61.80
33865;DHT22;20159;51.072;13.526;2022-07-09T10:45:40;24.80;62.00
33865;DHT22;20159;51.072;13.526;2022-07-09T10:48:08;24.80;61.80
33865;DHT22;20159;51.072;13.526;2022-07-09T10:50:45;24.80;62.00
33865;DHT22;20159;51.072;13.526;2022-07-09T10:53:12;24.70;61.90
33865;DHT22;20159;51.072;13.526;2022-07-09T10:55:41;24.70;62.40
33865;DHT22;20159;51.072;13.526;2022-07-09T10:58:16;24.70;61.70
33865;DHT22;20159;51.072;13.526;2022-07-09T11:00:42;24.80;61.40
33865;DHT22;20159;51.072;13.526;2022-07-09T11:03:08;24.90;62.00
33865;DHT22;20159;51.072;13.526;2022-07-09T11:05:42;25.00;61.40
33865;DHT22;20159;51.072;13.526;2022-07-09T11:08:09;25.10;61.50
33865;DHT22;20159;51.072;13.526;2022-07-09T11:10:36;25.20;61.50
33865;DHT22;20159;51.072;13.526;2022-07-09T11:13:03;25.40;60.70
33865;DHT22;20159;51.072;13.526;2022-07-09T11:15:30;25.50;60.60
33865;DHT22;20159;51.072;13.526;2022-07-09T11:18:05;25.60;60.20
33865;DHT22;20159;51.072;13.526;2022-07-09T11:20:44;25.80;60.20
33865;DHT22;20159;51.072;13.526;2022-07-09T11:23:11;25.90;59.70
33865;DHT22;20159;51.072;13.526;2022-07-09T11:25:37;26.10;60.00
33865;DHT22;20159;51.072;13.526;2022-07-09T11:28:03;26.30;60.40
33865;DHT22;20159;51.072;13.526;2022-07-09T11:30:29;26.60;60.20
33865;DHT22;20159;51.072;13.526;2022-07-09T11:32:55;26.80;59.00
33865;DHT22;20159;51.072;13.526;2022-07-09T11:35:31;27.00;59.00
33865;DHT22;20159;51.072;13.526;2022-07-09T11:37:58;27.30;57.80
33865;DHT22;20159;51.072;13.526;2022-07-09T11:40:24;27.50;58.60
33865;DHT22;20159;51.072;13.526;2022-07-09T11:42:50;27.70;57.00
33865;DHT22;20159;51.072;13.526;2022-07-09T11:45:20;27.80;56.90
33865;DHT22;20159;51.072;13.526;2022-07-09T11:47:46;27.90;55.50
33865;DHT22;20159;51.072;13.526;2022-07-09T11:50:13;28.00;55.40
33865;DHT22;20159;51.072;13.526;2022-07-09T11:52:44;28.10;54.70
33865;DHT22;20159;51.072;13.526;2022-07-09T11:55:12;28.10;53.30
33865;DHT22;20159;51.072;13.526;2022-07-09T11:57:39;28.20;53.90
33865;DHT22;20159;51.072;13.526;2022-07-09T12:00:19;28.20;54.00
33865;DHT22;20159;51.072;13.526;2022-07-09T12:02:45;28.20;53.30
33865;DHT22;20159;51.072;13.526;2022-07-09T12:05:11;28.30;53.10
33865;DHT22;20159;51.072;13.526;2022-07-09T12:07:36;28.30;52.40
33865;DHT22;20159;51.072;13.526;2022-07-09T12:10:03;28.20;52.10
33865;DHT22;20159;51.072;13.526;2022-07-09T12:12:30;28.20;52.20
33865;DHT22;20159;51.072;13.526;2022-07-09T12:14:56;28.10;51.80
33865;DHT22;20159;51.072;13.526;2022-07-09T12:17:26;28.00;52.50
33865;DHT22;20159;51.072;13.526;2022-07-09T12:19:52;27.80;51.60
33865;DHT22;20159;51.072;13.526;2022-07-09T12:22:19;27.70;51.80
33865;DHT22;20159;51.072;13.526;2022-07-09T12:24:44;27.50;52.20
33865;DHT22;20159;51.072;13.526;2022-07-09T12:27:10;27.30;51.80
33865;DHT22;20159;51.072;13.526;2022-07-09T12:29:36;27.20;52.60
33865;DHT22;20159;51.072;13.526;2022-07-09T12:32:01;27.00;52.50
33865;DHT22;20159;51.072;13.526;2022-07-09T12:34:27;26.90;52.50
33865;DHT22;20159;51.072;13.526;2022-07-09T12:36:52;26.70;52.30
33865;DHT22;20159;51.072;13.526;2022-07-09T12:39:18;26.60;52.90
33865;DHT22;20159;51.072;13.526;2022-07-09T12:41:43;26.40;53.30
33865;DHT22;20159;51.072;13.526;2022-07-09T12:44:09;26.30;53.50
33865;DHT22;20159;51.072;13.526;2022-07-09T12:46:34;26.20;53.70
33865;DHT22;20159;51.072;13.526;2022-07-09T12:49:01;26.10;53.00
33865;DHT22;20159;51.072;13.526;2022-07-09T12:51:27;25.90;53.60
33865;DHT22;20159;51.072;13.526;2022-07-09T12:53:52;25.80;53.10
33865;DHT22;20159;51.072;13.526;2022-07-09T12:56:18;25.70;53.10
33865;DHT22;20159;51.072;13.526;2022-07-09T12:58:43;25.60;53.70
33865;DHT22;20159;51.072;13.526;2022-07-09T13:01:09;25.50;53.90
33865;DHT22;20159;51.072;13.526;2022-07-09T13:03:34;25.40;54.30
33865;DHT22;20159;51.072;13.526;2022-07-09T13:06:00;25.30;55.00
33865;DHT22;20159;51.072;13.526;2022-07-09T13:08:26;25.30;55.10
33865;DHT22;20159;51.072;13.526;2022-07-09T13:10:51;25.30;55.20
33865;DHT22;20159;51.072;13.526;2022-07-09T13:13:17;25.30;55.70
33865;DHT22;20159;51.072;13.526;2022-07-09T13:15:43;25.30;55.30
33865;DHT22;20159;51.072;13.526;2022-07-09T13:18:08;25.30;55.10
33865;DHT22;20159;51.072;13.526;2022-07-09T13:20:34;25.30;55.10
33865;DHT22;20159;51.072;13.526;2022-07-09T13:22:59;25.30;55.20
33865;DHT22;20159;51.072;13.526;2022-07-09T13:25:25;25.20;55.20
33865;DHT22;20159;51.072;13.526;2022-07-09T13:27:51;25.20;55.10
33865;DHT22;20159;51.072;13.526;2022-07-09T13:30:16;25.10;55.40
33865;DHT22;20159;51.072;13.526;2022-07-09T13:32:46;25.10;56.20
33865;DHT22;20159;51.072;13.526;2022-07-09T13:35:12;25.10;56.70
33865;DHT22;20159;51.072;13.526;2022-07-09T13:37:37;25.20;57.50
33865;DHT22;20159;51.072;13.526;2022-07-09T13:40:04;25.30;58.10
33865;DHT22;20159;51.072;13.526;2022-07-09T13:42:29;25.50;58.20
33865;DHT22;20159;51.072;13.526;2022-07-09T13:44:55;25.80;57.50
33865;DHT22;20159;51.072;13.526;2022-07-09T13:47:20;26.10;56.60
33865;DHT22;20159;51.072;13.526;2022-07-09T13:49:46;26.40;56.30
33865;DHT22;20159;51.072;13.526;2022-07-09T13:52:11;26.70;55.60
33865;DHT22;20159;51.072;13.526;2022-07-09T13:54:37;27.00;54.40
33865;DHT22;20159;51.072;13.526;2022-07-09T13:57:03;27.30;54.10
33865;DHT22;20159;51.072;13.526;2022-07-09T13:59:28;27.60;53.80
33865;DHT22;20159;51.072;13.526;2022-07-09T14:01:54;27.70;53.80
33865;DHT22;20159;51.072;13.526;2022-07-09T14:04:19;27.90;53.50
33865;DHT22;20159;51.072;13.526;2022-07-09T14:06:45;28.10;53.10
33865;DHT22;20159;51.072;13.526;2022-07-09T14:09:11;28.20;52.60
33865;DHT22;20159;51.072;13.526;2022-07-09T14:11:36;28.30;52.80
33865;DHT22;20159;51.072;13.526;2022-07-09T14:14:02;28.40;52.40
33865;DHT22;20159;51.072;13.526;2022-07-09T14:16:27;28.60;52.10
33865;DHT22;20159;51.072;13.526;2022-07-09T14:18:53;28.70;51.10
33865;DHT22;20159;51.072;13.526;2022-07-09T14:21:20;28.80;51.40
33865;DHT22;20159;51.072;13.526;2022-07-09T14:23:45;28.80;50.90
33865;DHT22;20159;51.072;13.526;2022-07-09T14:26:15;28.90;50.70
33865;DHT22;20159;51.072;13.526;2022-07-09T14:28:40;28.80;49.80
33865;DHT22;20159;51.072;13.526;2022-07-09T14:31:06;28.80;50.60
33865;DHT22;20159;51.072;13.526;2022-07-09T14:33:31;28.80;50.90
33865;DHT22;20159;51.072;13.526;2022-07-09T14:35:57;28.80;50.30
33865;DHT22;20159;51.072;13.526;2022-07-09T14:38:23;28.90;50.60
33865;DHT22;20159;51.072;13.526;2022-07-09T14:40:48;29.00;50.90
33865;DHT22;20159;51.072;13.526;2022-07-09T14:43:14;29.00;50.40
33865;DHT22;20159;51.072;13.526;2022-07-09T14:45:39;29.10;50.10
33865;DHT22;20159;51.072;13.526;2022-07-09T14:48:05;29.10;49.60
33865;DHT22;20159;51.072;13.526;2022-07-09T14:50:35;29.10;49.50
33865;DHT22;20159;51.072;13.526;2022-07-09T14:53:01;29.00;49.70
33865;DHT22;20159;51.072;13.526;2022-07-09T14:55:28;29.00;49.50
33865;DHT22;20159;51.072;13.526;2022-07-09T14:57:54;28.80;49.00
33865;DHT22;20159;51.072;13.526;2022-07-09T15:00:19;28.70;49.10
33865;DHT22;20159;51.072;13.526;2022-07-09T15:02:45;28.50;49.00
33865;DHT22;20159;51.072;13.526;2022-07-09T15:05:10;28.30;49.30
33865;DHT22;20159;51.072;13.526;2022-07-09T15:07:36;28.10;49.70
33865;DHT22;20159;51.072;13.526;2022-07-09T15:10:03;27.90;50.40
33865;DHT22;20159;51.072;13.526;2022-07-09T15:12:29;27.70;50.80